createdAt,value
2022-09-15T00:00:02.979Z,23.20
2022-09-15T00:02:33.123Z,23.20
2022-09-15T00:05:02.508Z,23.20
2022-09-15T00:07:33.115Z,23.20
2022-09-15T00:10:03.132Z,23.20
2022-09-15T00:12:32.451Z,23.20
2022-09-15T00:15:03.009Z,23.20
2022-09-15T00:17:33.237Z,23.20
2022-09-15T00:20:03.325Z,23.30
2022-09-15T00:22:32.562Z,23.10
2022-09-15T00:25:02.576Z,23.10
2022-09-15T00:27:33.542Z,23.10
2022-09-15T00:30:03.526Z,23.20
2022-09-15T00:32:32.952Z,23.20
2022-09-15T00:35:03.165Z,23.20
2022-09-15T00:37:33.230Z,23.20
2022-09-15T00:40:02.573Z,23.20
2022-09-15T00:42:32.667Z,23.20
2022-09-15T00:45:03.828Z,23.30
2022-09-15T00:47:40.121Z,23.20
2022-09-15T00:50:15.370Z,23.20
2022-09-15T00:52:54.353Z,23.20
2022-09-15T00:55:33.273Z,23.20
2022-09-15T00:58:08.758Z,23.10
2022-09-15T01:03:27.419Z,23.20
2022-09-15T01:06:06.550Z,23.20
2022-09-15T01:08:44.038Z,23.20
2022-09-15T01:11:14.327Z,23.30
2022-09-15T01:13:45.330Z,23.30
2022-09-15T01:20:18.133Z,23.40
2022-09-15T01:23:17.319Z,23.50
2022-09-15T01:26:18.714Z,23.50
2022-09-15T01:29:17.899Z,23.60
2022-09-15T01:32:26.528Z,23.60
2022-09-15T01:35:16.700Z,23.70
2022-09-15T01:38:05.566Z,23.70
2022-09-15T01:40:42.603Z,23.80
2022-09-15T01:43:13.451Z,23.90
2022-09-15T01:45:46.836Z,23.90
2022-09-15T01:48:18.913Z,24.00
2022-09-15T01:50:53.525Z,24.10
2022-09-15T01:53:25.751Z,24.10
2022-09-15T01:56:13.288Z,24.20
2022-09-15T01:58:44.224Z,24.20
2022-09-15T02:01:42.299Z,24.20
2022-09-15T02:04:41.586Z,24.30
2022-09-15T02:07:22.400Z,24.30
2022-09-15T02:10:13.113Z,24.40
2022-09-15T02:13:09.048Z,24.40
2022-09-15T02:15:45.429Z,24.40
2022-09-15T02:18:20.060Z,24.50
2022-09-15T02:20:59.233Z,24.60
2022-09-15T02:23:33.732Z,24.70
2022-09-15T02:26:15.773Z,24.80
2022-09-15T02:28:47.509Z,24.90
2022-09-15T02:31:20.566Z,24.90
2022-09-15T02:33:59.245Z,24.90
2022-09-15T02:36:31.302Z,25.00
2022-09-15T02:39:08.362Z,25.00
2022-09-15T02:41:39.010Z,25.00
2022-09-15T02:44:10.340Z,25.10
2022-09-15T02:46:41.411Z,25.30
2022-09-15T02:49:11.417Z,25.30
2022-09-15T02:51:41.387Z,25.30
2022-09-15T02:54:11.351Z,25.40
2022-09-15T02:56:41.216Z,25.50
2022-09-15T02:59:10.509Z,25.50
2022-09-15T03:01:40.592Z,25.50
2022-09-15T03:04:10.631Z,25.60
2022-09-15T03:06:40.594Z,25.70
2022-09-15T03:09:11.483Z,25.70
2022-09-15T03:11:41.447Z,25.80
2022-09-15T03:14:12.470Z,25.80
2022-09-15T03:16:42.428Z,25.90
2022-09-15T03:19:12.325Z,25.90
2022-09-15T03:21:42.274Z,25.90
2022-09-15T03:24:12.141Z,26.00
2022-09-15T03:26:41.466Z,26.00
2022-09-15T03:29:11.458Z,26.00
2022-09-15T03:31:41.642Z,26.00
2022-09-15T03:34:11.858Z,26.10
2022-09-15T03:36:42.862Z,26.10
2022-09-15T03:39:14.868Z,26.10
2022-09-15T03:41:44.740Z,26.20
2022-09-15T03:44:15.104Z,26.30
2022-09-15T03:46:45.405Z,26.30
2022-09-15T03:49:15.354Z,26.30
2022-09-15T03:51:45.222Z,26.40
2022-09-15T03:54:15.071Z,26.50
2022-09-15T03:56:44.978Z,26.30
2022-09-15T03:59:14.944Z,26.30
2022-09-15T04:01:45.254Z,26.30
2022-09-15T04:04:16.597Z,26.30
2022-09-15T04:06:47.703Z,26.30
2022-09-15T04:09:20.257Z,26.50
2022-09-15T04:11:50.448Z,26.50
2022-09-15T04:14:20.910Z,26.60
2022-09-15T04:16:51.289Z,26.60
2022-09-15T04:19:21.192Z,26.60
2022-09-15T04:21:51.132Z,26.60
2022-09-15T04:24:21.258Z,26.70
2022-09-15T04:26:51.557Z,26.70
2022-09-15T04:29:21.526Z,26.70
2022-09-15T04:31:52.068Z,26.70
2022-09-15T04:34:22.212Z,26.70
2022-09-15T04:36:52.512Z,26.70
2022-09-15T04:39:22.454Z,26.70
2022-09-15T04:41:52.475Z,26.80
2022-09-15T04:44:22.675Z,26.80
2022-09-15T04:46:52.731Z,26.90
2022-09-15T04:49:22.714Z,27.00
2022-09-15T04:51:55.917Z,27.00
2022-09-15T04:54:25.844Z,27.10
2022-09-15T04:56:55.742Z,27.10
2022-09-15T04:59:25.733Z,27.10
2022-09-15T05:01:58.515Z,27.10
2022-09-15T05:04:28.565Z,27.20
2022-09-15T05:06:58.443Z,27.20
2022-09-15T05:09:31.211Z,27.30
2022-09-15T05:12:01.271Z,27.40
2022-09-15T05:14:32.869Z,27.50
2022-09-15T05:17:03.322Z,27.60
2022-09-15T05:19:33.789Z,27.60
2022-09-15T05:22:04.284Z,27.50
2022-09-15T05:24:36.202Z,27.60
2022-09-15T05:27:06.977Z,27.90
2022-09-15T05:29:37.462Z,28.00
2022-09-15T05:32:08.245Z,28.20
2022-09-15T05:34:41.667Z,28.20
2022-09-15T05:37:12.829Z,28.30
2022-09-15T05:39:43.367Z,28.20
2022-09-15T05:42:13.927Z,28.20
2022-09-15T05:44:44.570Z,28.20
2022-09-15T05:47:15.397Z,28.20
2022-09-15T05:49:45.745Z,28.10
2022-09-15T05:52:17.775Z,28.10
2022-09-15T05:54:48.451Z,28.10
2022-09-15T05:57:20.531Z,28.20
2022-09-15T05:59:51.157Z,28.50
2022-09-15T06:02:21.823Z,28.60
2022-09-15T06:04:52.291Z,28.50
2022-09-15T06:07:23.365Z,28.60
2022-09-15T06:09:54.023Z,28.50
2022-09-15T06:12:24.813Z,28.40
2022-09-15T06:14:55.873Z,28.30
2022-09-15T06:17:26.633Z,28.20
2022-09-15T06:19:59.116Z,28.10
2022-09-15T06:22:31.259Z,28.10
2022-09-15T06:25:02.001Z,28.00
2022-09-15T06:27:32.688Z,27.90
2022-09-15T06:30:03.146Z,27.90
2022-09-15T06:32:33.754Z,27.90
2022-09-15T06:35:09.083Z,27.90
2022-09-15T06:37:40.941Z,28.00
2022-09-15T06:40:12.152Z,28.00
2022-09-15T06:42:42.716Z,28.00
2022-09-15T06:45:13.347Z,28.10
2022-09-15T06:47:43.778Z,28.00
2022-09-15T06:50:14.487Z,28.10
2022-09-15T06:52:45.803Z,28.10
2022-09-15T06:55:16.164Z,28.10
2022-09-15T06:57:46.683Z,28.20
2022-09-15T07:00:17.294Z,28.20
2022-09-15T07:02:51.230Z,28.30
2022-09-15T07:05:21.568Z,28.20
2022-09-15T07:07:51.833Z,28.30
2022-09-15T07:10:22.348Z,28.40
2022-09-15T07:12:52.670Z,28.50
2022-09-15T07:15:25.376Z,28.40
2022-09-15T07:17:56.015Z,28.50
2022-09-15T07:20:29.323Z,28.60
2022-09-15T07:22:59.653Z,28.70
2022-09-15T07:25:29.944Z,28.80
2022-09-15T07:28:00.409Z,28.80
2022-09-15T07:30:30.788Z,28.80
2022-09-15T07:33:01.417Z,28.90
2022-09-15T07:35:31.735Z,29.00
2022-09-15T07:38:02.729Z,29.10
2022-09-15T07:40:33.895Z,29.20
2022-09-15T07:43:04.327Z,29.20
2022-09-15T07:45:35.446Z,29.20
2022-09-15T07:48:06.030Z,29.10
2022-09-15T07:50:37.140Z,29.00
2022-09-15T07:53:07.653Z,29.10
2022-09-15T07:55:37.972Z,29.20
2022-09-15T07:58:08.425Z,29.40
2022-09-15T08:00:41.270Z,29.50
2022-09-15T08:03:11.782Z,29.50
2022-09-15T08:05:45.425Z,29.50
2022-09-15T08:08:16.609Z,29.50
2022-09-15T08:10:46.892Z,29.50
2022-09-15T08:13:17.273Z,29.40
2022-09-15T08:15:48.381Z,29.20
2022-09-15T08:18:19.401Z,29.10
2022-09-15T08:20:49.683Z,29.00
2022-09-15T08:23:20.286Z,29.00
2022-09-15T08:25:53.533Z,28.90
2022-09-15T08:28:24.078Z,28.90
2022-09-15T08:31:03.342Z,28.90
2022-09-15T08:33:34.555Z,28.80
2022-09-15T08:36:08.037Z,28.80
2022-09-15T08:38:38.744Z,28.80
2022-09-15T08:41:17.789Z,28.70
2022-09-15T08:44:19.343Z,28.60
2022-09-15T08:47:16.344Z,28.40
2022-09-15T08:50:17.251Z,28.10
2022-09-15T08:53:03.005Z,27.80
2022-09-15T08:56:01.476Z,27.70
2022-09-15T08:58:39.761Z,27.50
2022-09-15T09:01:43.763Z,27.50
2022-09-15T09:04:48.739Z,27.40
2022-09-15T09:07:40.826Z,27.40
2022-09-15T09:10:26.117Z,27.30
2022-09-15T09:13:14.075Z,27.30
2022-09-15T09:16:23.944Z,27.10
2022-09-15T09:19:31.308Z,27.10
2022-09-15T09:22:14.614Z,27.10
2022-09-15T09:24:49.786Z,27.10
2022-09-15T09:27:24.108Z,27.20
2022-09-15T09:30:18.045Z,27.20
2022-09-15T09:33:13.186Z,27.30
2022-09-15T09:35:54.314Z,27.30
2022-09-15T09:38:34.791Z,27.40
2022-09-15T09:41:09.275Z,27.40
2022-09-15T09:43:40.360Z,27.40
2022-09-15T09:46:18.503Z,27.30
2022-09-15T09:49:03.778Z,27.40
2022-09-15T09:51:51.141Z,27.30
2022-09-15T09:54:22.793Z,27.30
2022-09-15T09:56:55.005Z,27.30
2022-09-15T09:59:45.154Z,27.20
2022-09-15T10:02:21.418Z,27.20
2022-09-15T10:04:56.210Z,27.20
2022-09-15T10:07:29.333Z,27.30
2022-09-15T10:10:02.663Z,27.30
2022-09-15T10:12:43.905Z,27.40
2022-09-15T10:15:27.927Z,27.40
2022-09-15T10:17:59.652Z,27.50
2022-09-15T10:20:37.703Z,27.60
2022-09-15T10:23:29.410Z,27.50
2022-09-15T10:26:20.489Z,27.50
2022-09-15T10:29:14.863Z,27.50
2022-09-15T10:31:46.784Z,27.50
2022-09-15T10:34:33.394Z,27.50
2022-09-15T10:37:27.637Z,27.40
2022-09-15T10:40:00.947Z,27.30
2022-09-15T10:42:52.725Z,27.30
2022-09-15T10:45:39.899Z,27.30
2022-09-15T10:48:48.260Z,27.20
2022-09-15T10:51:37.660Z,27.10
2022-09-15T10:54:31.534Z,27.00
2022-09-15T10:57:19.808Z,26.90
2022-09-15T11:00:12.717Z,26.80
2022-09-15T11:03:01.925Z,26.80
2022-09-15T11:06:01.665Z,26.80
2022-09-15T11:08:42.672Z,26.70
2022-09-15T11:11:32.811Z,26.70
2022-09-15T11:14:28.114Z,26.70
2022-09-15T11:17:33.476Z,26.60
2022-09-15T11:20:34.170Z,26.60
2022-09-15T11:23:21.319Z,26.60
2022-09-15T11:25:59.010Z,26.50
2022-09-15T11:28:44.802Z,26.50
2022-09-15T11:31:36.452Z,26.50
2022-09-15T11:34:45.530Z,26.40
2022-09-15T11:37:23.960Z,26.40
2022-09-15T11:40:24.332Z,26.40
2022-09-15T11:43:06.074Z,26.30
2022-09-15T11:45:41.349Z,26.30
2022-09-15T11:48:25.413Z,26.30
2022-09-15T11:50:59.416Z,26.30
2022-09-15T11:53:48.290Z,26.30
2022-09-15T11:56:28.704Z,26.30
2022-09-15T11:59:24.432Z,26.20
2022-09-15T12:02:08.102Z,26.10
2022-09-15T12:04:43.702Z,26.00
2022-09-15T12:07:22.708Z,26.00
2022-09-15T12:09:53.703Z,26.00
2022-09-15T12:12:28.028Z,26.00
2022-09-15T12:15:01.491Z,25.90
2022-09-15T12:17:45.696Z,25.90
2022-09-15T12:20:38.271Z,25.90
2022-09-15T12:23:24.215Z,25.90
2022-09-15T12:26:18.382Z,25.90
2022-09-15T12:29:04.684Z,25.80
2022-09-15T12:31:41.296Z,25.70
2022-09-15T12:34:36.291Z,25.60
2022-09-15T12:37:21.675Z,25.60
2022-09-15T12:39:52.121Z,25.50
2022-09-15T12:42:26.278Z,25.50
2022-09-15T12:45:33.092Z,25.60
2022-09-15T12:48:09.721Z,25.60
2022-09-15T12:50:44.785Z,25.50
2022-09-15T12:53:29.729Z,25.50
2022-09-15T12:56:03.151Z,25.50
2022-09-15T12:58:40.419Z,25.40
2022-09-15T13:01:34.490Z,25.50
2022-09-15T13:04:28.591Z,25.40
2022-09-15T13:07:24.851Z,25.40
2022-09-15T13:10:20.897Z,25.30
2022-09-15T13:13:05.270Z,25.40
2022-09-15T13:15:38.868Z,25.40
2022-09-15T13:18:09.584Z,25.40
2022-09-15T13:20:44.136Z,25.40
2022-09-15T13:23:18.108Z,25.40
2022-09-15T13:25:50.912Z,25.30
2022-09-15T13:28:22.721Z,25.30
2022-09-15T13:31:32.132Z,25.30
2022-09-15T13:38:12.634Z,25.20
2022-09-15T13:41:25.523Z,25.20
2022-09-15T13:44:30.584Z,25.10
2022-09-15T13:47:19.485Z,25.20
2022-09-15T13:50:23.205Z,25.20
2022-09-15T13:53:22.590Z,25.20
2022-09-15T13:55:56.653Z,25.30
2022-09-15T14:01:26.322Z,25.30
2022-09-15T14:04:01.982Z,25.30
2022-09-15T14:06:40.573Z,25.30
2022-09-15T14:09:22.846Z,25.30
2022-09-15T14:11:56.259Z,25.20
2022-09-15T14:14:41.915Z,25.30
2022-09-15T14:17:26.186Z,25.20
2022-09-15T14:19:58.996Z,25.20
2022-09-15T14:22:32.169Z,25.20
2022-09-15T14:25:08.279Z,25.20
2022-09-15T14:27:41.103Z,25.20
2022-09-15T14:30:19.299Z,25.30
2022-09-15T14:32:54.321Z,25.20
2022-09-15T14:35:28.792Z,25.10
2022-09-15T14:38:01.144Z,25.10
2022-09-15T14:40:38.037Z,25.00
2022-09-15T14:43:28.962Z,25.00
2022-09-15T14:46:11.917Z,25.00
2022-09-15T14:48:42.526Z,25.00
2022-09-15T14:51:30.733Z,25.00
2022-09-15T14:54:05.305Z,25.10
2022-09-15T14:56:40.081Z,25.00
2022-09-15T14:59:19.173Z,24.90
2022-09-15T15:02:09.036Z,25.00
2022-09-15T15:04:42.904Z,25.00
2022-09-15T15:07:35.158Z,24.90
2022-09-15T15:10:10.101Z,24.90
2022-09-15T15:12:44.797Z,24.90
2022-09-15T15:15:19.092Z,24.80
2022-09-15T15:17:52.915Z,24.80
2022-09-15T15:20:27.683Z,24.80
2022-09-15T15:23:14.419Z,24.80
2022-09-15T15:25:45.461Z,24.80
2022-09-15T15:28:34.174Z,24.90
2022-09-15T15:31:25.721Z,24.80
2022-09-15T15:34:01.365Z,24.80
2022-09-15T15:36:32.561Z,24.80
2022-09-15T15:39:07.456Z,24.80
2022-09-15T15:41:44.062Z,24.80
2022-09-15T15:44:32.337Z,24.80
2022-09-15T15:47:25.309Z,24.80
2022-09-15T15:50:15.326Z,24.80
2022-09-15T15:52:46.975Z,24.90
2022-09-15T15:55:19.847Z,24.90
2022-09-15T15:57:52.527Z,24.90
2022-09-15T16:00:32.475Z,24.90
2022-09-15T16:03:02.833Z,24.80
2022-09-15T16:05:33.687Z,24.80
2022-09-15T16:08:12.087Z,24.80
2022-09-15T16:10:47.109Z,24.70
2022-09-15T16:13:19.705Z,24.70
2022-09-15T16:15:51.308Z,24.70
2022-09-15T16:18:21.817Z,24.70
2022-09-15T16:20:52.234Z,24.70
2022-09-15T16:23:24.909Z,24.70
2022-09-15T16:26:03.798Z,24.70
2022-09-15T16:28:34.389Z,24.70
2022-09-15T16:31:04.708Z,24.70
2022-09-15T16:33:38.168Z,24.70
2022-09-15T16:36:09.120Z,24.70
2022-09-15T16:38:39.840Z,24.70
2022-09-15T16:41:20.003Z,24.50
2022-09-15T16:43:50.606Z,24.50
2022-09-15T16:46:21.088Z,24.50
2022-09-15T16:48:51.456Z,24.50
2022-09-15T16:51:28.751Z,24.50
2022-09-15T16:54:01.418Z,24.40
2022-09-15T16:56:32.053Z,24.40
2022-09-15T16:59:02.617Z,24.40
2022-09-15T17:01:33.288Z,24.40
2022-09-15T17:04:05.437Z,24.40
2022-09-15T17:06:35.958Z,24.40
2022-09-15T17:09:06.539Z,24.50
2022-09-15T17:11:36.974Z,24.40
2022-09-15T17:14:15.722Z,24.50
2022-09-15T17:16:49.507Z,24.50
2022-09-15T17:19:19.892Z,24.50
2022-09-15T17:21:52.216Z,24.50
2022-09-15T17:24:23.649Z,24.50
2022-09-15T17:26:54.050Z,24.50
2022-09-15T17:29:24.599Z,24.50
2022-09-15T17:31:55.965Z,24.60
2022-09-15T17:34:26.430Z,24.50
2022-09-15T17:36:56.670Z,24.50
2022-09-15T17:39:26.972Z,24.50
2022-09-15T17:41:57.253Z,24.50
2022-09-15T17:44:27.545Z,24.50
2022-09-15T17:46:58.047Z,24.50
2022-09-15T17:49:28.533Z,24.50
2022-09-15T17:51:59.817Z,24.50
2022-09-15T17:54:30.263Z,24.50
2022-09-15T17:57:00.526Z,24.50
2022-09-15T17:59:30.805Z,24.60
2022-09-15T18:02:01.146Z,24.60
2022-09-15T18:04:31.738Z,24.60
2022-09-15T18:07:01.952Z,24.60
2022-09-15T18:09:33.349Z,24.50
2022-09-15T18:12:03.687Z,24.50
2022-09-15T18:14:34.510Z,24.50
2022-09-15T18:17:04.761Z,24.50
2022-09-15T18:19:35.143Z,24.50
2022-09-15T18:22:05.809Z,24.50
2022-09-15T18:24:36.688Z,24.50
2022-09-15T18:27:06.987Z,24.50
2022-09-15T18:29:37.301Z,24.40
2022-09-15T18:32:07.684Z,24.40
2022-09-15T18:34:38.143Z,24.30
2022-09-15T18:37:08.537Z,24.30
2022-09-15T18:39:39.435Z,24.20
2022-09-15T18:42:10.111Z,24.20
2022-09-15T18:44:40.356Z,24.20
2022-09-15T18:47:10.596Z,24.20
2022-09-15T18:49:40.858Z,24.20
2022-09-15T18:52:11.390Z,24.10
2022-09-15T18:54:41.712Z,24.10
2022-09-15T18:57:11.996Z,24.10
2022-09-15T18:59:42.625Z,24.10
2022-09-15T19:02:16.354Z,24.10
2022-09-15T19:04:47.573Z,24.10
2022-09-15T19:07:17.820Z,24.00
2022-09-15T19:09:48.122Z,24.10
2022-09-15T19:12:18.463Z,24.10
2022-09-15T19:14:50.371Z,24.10
2022-09-15T19:17:21.180Z,24.10
2022-09-15T19:19:51.599Z,24.10
2022-09-15T19:22:21.895Z,24.10
2022-09-15T19:24:52.333Z,24.00
2022-09-15T19:27:22.775Z,24.10
2022-09-15T19:29:53.293Z,24.00
2022-09-15T19:32:24.221Z,23.90
2022-09-15T19:34:54.953Z,23.90
2022-09-15T19:37:26.021Z,23.90
2022-09-15T19:39:56.887Z,23.90
2022-09-15T19:42:27.234Z,23.90
2022-09-15T19:44:57.634Z,23.90
2022-09-15T19:47:28.207Z,23.90
2022-09-15T19:49:58.523Z,23.90
2022-09-15T19:52:29.648Z,23.90
2022-09-15T19:55:00.057Z,23.90
2022-09-15T19:57:30.339Z,23.90
2022-09-15T20:00:00.564Z,23.80
2022-09-15T20:02:30.907Z,23.80
2022-09-15T20:05:01.309Z,23.90
2022-09-15T20:07:31.592Z,23.80
2022-09-15T20:10:01.861Z,23.80
2022-09-15T20:12:33.203Z,23.80
2022-09-15T20:15:03.936Z,23.80
2022-09-15T20:17:34.278Z,23.70
2022-09-15T20:20:04.937Z,23.80
2022-09-15T20:22:35.198Z,23.80
2022-09-15T20:25:06.090Z,23.80
2022-09-15T20:27:36.739Z,23.80
2022-09-15T20:30:08.286Z,23.80
2022-09-15T20:32:38.534Z,23.80
2022-09-15T20:35:09.122Z,23.80
2022-09-15T20:37:39.379Z,23.80
2022-09-15T20:40:12.080Z,23.80
2022-09-15T20:42:42.390Z,23.80
2022-09-15T20:45:13.472Z,23.80
2022-09-15T20:47:43.726Z,23.80
2022-09-15T20:50:14.211Z,23.80
2022-09-15T20:52:44.755Z,23.80
2022-09-15T20:55:15.145Z,23.80
2022-09-15T20:57:45.393Z,23.80
2022-09-15T21:00:16.422Z,23.80
2022-09-15T21:02:46.718Z,23.70
2022-09-15T21:05:17.120Z,23.80
2022-09-15T21:07:47.434Z,23.80
2022-09-15T21:10:17.778Z,23.70
2022-09-15T21:12:48.025Z,23.80
2022-09-15T21:15:19.148Z,23.70
2022-09-15T21:17:49.391Z,23.80
2022-09-15T21:20:19.807Z,23.80
2022-09-15T21:22:55.037Z,23.70
2022-09-15T21:25:26.206Z,23.70
2022-09-15T21:27:56.467Z,23.60
2022-09-15T21:30:26.768Z,23.70
2022-09-15T21:32:57.438Z,23.70
2022-09-15T21:35:27.905Z,23.60
2022-09-15T21:38:00.647Z,23.60
2022-09-15T21:40:31.203Z,23.60
2022-09-15T21:43:01.550Z,23.60
2022-09-15T21:45:32.668Z,23.60
2022-09-15T21:48:02.957Z,23.60
2022-09-15T21:50:33.336Z,23.70
2022-09-15T21:53:03.596Z,23.70
2022-09-15T21:55:33.860Z,23.60
2022-09-15T21:58:04.108Z,23.60
2022-09-15T22:00:34.502Z,23.60
2022-09-15T22:03:04.761Z,23.70
2022-09-15T22:05:35.270Z,23.70
2022-09-15T22:08:05.738Z,23.60
2022-09-15T22:10:36.281Z,23.60
2022-09-15T22:13:07.888Z,23.60
2022-09-15T22:15:39.226Z,23.50
2022-09-15T22:18:09.567Z,23.50
2022-09-15T22:20:39.892Z,23.60
2022-09-15T22:23:10.150Z,23.60
2022-09-15T22:25:40.579Z,23.60
2022-09-15T22:28:10.821Z,23.50
2022-09-15T22:30:41.289Z,23.50
2022-09-15T22:33:11.112Z,23.50
2022-09-15T22:35:40.936Z,23.50
2022-09-15T22:38:10.747Z,23.60
2022-09-15T22:40:40.624Z,23.50
2022-09-15T22:43:10.521Z,23.50
2022-09-15T22:45:40.635Z,23.50
2022-09-15T22:48:10.774Z,23.50
2022-09-15T22:50:40.221Z,23.40
2022-09-15T22:53:10.053Z,23.40
2022-09-15T22:55:39.859Z,23.30
2022-09-15T22:58:10.166Z,23.40
2022-09-15T23:00:41.457Z,23.40
2022-09-15T23:03:12.539Z,23.30
2022-09-15T23:05:42.656Z,23.30
2022-09-15T23:08:12.542Z,23.30
2022-09-15T23:10:42.283Z,23.30
2022-09-15T23:13:13.720Z,23.30
2022-09-15T23:15:45.233Z,23.30
2022-09-15T23:18:15.575Z,23.30
2022-09-15T23:20:46.443Z,23.30
2022-09-15T23:23:16.164Z,23.30
2022-09-15T23:25:46.305Z,23.30
2022-09-15T23:28:16.176Z,23.30
2022-09-15T23:30:46.021Z,23.30
2022-09-15T23:33:15.838Z,23.40
2022-09-15T23:35:45.606Z,23.40
2022-09-15T23:38:16.058Z,23.30
2022-09-15T23:40:46.287Z,23.30
2022-09-15T23:43:17.200Z,23.30
2022-09-15T23:45:48.139Z,23.20
2022-09-15T23:48:17.967Z,23.30
2022-09-15T23:50:47.971Z,23.30
2022-09-15T23:53:17.791Z,23.30
2022-09-15T23:55:49.341Z,23.20
2022-09-15T23:58:20.600Z,23.30
